Time;durP1;ratioP1;P1;durP2;ratioP2;P2;SDS_P1;SDS_P2;PMS_P1;PMS_P2;Temp;Humidity;BMP_temperature;BMP_pressure;BME280_temperature;BME280_humidity;BME280_pressure;Samples;Min_cycle;Max_cycle;Signal;HPM_P1;HPM_P2
2022/10/01 00:00:25;;;;;;;1.25;1.20;;;17.10;61.50;;;;;;5056249;28;20167;-65
2022/10/01 00:02:52;;;;;;;0.98;0.98;;;17.10;61.50;;;;;;5055615;28;20207;-64
2022/10/01 00:05:17;;;;;;;0.80;0.80;;;17.00;61.50;;;;;;5056155;28;20594;-64
2022/10/01 00:07:43;;;;;;;1.33;0.85;;;17.00;61.50;;;;;;5055523;28;20178;-63
2022/10/01 00:10:09;;;;;;;1.27;1.17;;;17.00;61.50;;;;;;5055413;28;20242;-64
2022/10/01 00:12:36;;;;;;;0.90;0.90;;;17.00;61.50;;;;;;5055978;28;20227;-65
2022/10/01 00:15:02;;;;;;;1.10;1.00;;;17.10;61.60;;;;;;5055731;28;20586;-64
2022/10/01 00:17:27;;;;;;;1.25;1.00;;;17.00;61.50;;;;;;5055441;28;20262;-64
2022/10/01 00:19:53;;;;;;;1.52;0.85;;;17.00;61.50;;;;;;5055996;28;20195;-63
2022/10/01 00:22:18;;;;;;;0.90;0.90;;;17.00;61.60;;;;;;5055773;28;20547;-64
2022/10/01 00:24:46;;;;;;;1.83;1.15;;;17.00;61.60;;;;;;5055021;28;20709;-64
2022/10/01 00:27:12;;;;;;;1.60;0.95;;;17.00;61.60;;;;;;5055561;28;20167;-64
2022/10/01 00:29:38;;;;;;;1.17;1.08;;;17.00;61.60;;;;;;5055832;28;20544;-64
2022/10/01 00:32:03;;;;;;;1.27;1.02;;;17.00;61.60;;;;;;5054777;28;20261;-63
2022/10/01 00:34:29;;;;;;;1.27;1.17;;;17.00;61.60;;;;;;5055601;28;20549;-63
2022/10/01 00:36:54;;;;;;;0.90;0.90;;;17.00;61.60;;;;;;5055448;28;20532;-63
2022/10/01 00:39:20;;;;;;;1.00;1.00;;;17.00;61.60;;;;;;5054711;28;20179;-63
2022/10/01 00:41:46;;;;;;;1.55;1.23;;;17.00;61.60;;;;;;5055450;28;20186;-64
2022/10/01 00:44:28;;;;;;;0.95;0.93;;;17.00;61.70;;;;;;5055339;28;20211;-64
2022/10/01 00:46:55;;;;;;;1.45;1.00;;;17.00;61.70;;;;;;5058936;28;20206;-64
2022/10/01 00:49:23;;;;;;;1.70;1.02;;;17.00;61.70;;;;;;5075251;28;20225;-64
2022/10/01 00:51:56;;;;;;;1.35;1.02;;;17.00;61.80;;;;;;5074439;28;20590;-64
2022/10/01 00:54:29;;;;;;;1.33;1.00;;;17.00;61.80;;;;;;5065035;28;20179;-64
2022/10/01 00:56:55;;;;;;;1.70;1.00;;;17.00;61.70;;;;;;5054108;28;20190;-64
2022/10/01 00:59:20;;;;;;;1.10;1.10;;;17.00;61.80;;;;;;5053148;28;20642;-64
2022/10/01 01:01:46;;;;;;;1.00;1.00;;;17.00;61.70;;;;;;5055024;28;20230;-64
2022/10/01 01:04:17;;;;;;;1.48;1.00;;;17.00;61.80;;;;;;5054740;28;20746;-63
2022/10/01 01:06:44;;;;;;;1.17;1.00;;;17.00;61.80;;;;;;5054619;28;20191;-64
2022/10/01 01:09:10;;;;;;;0.82;0.82;;;17.00;61.80;;;;;;5037215;28;20190;-64
2022/10/01 01:11:50;;;;;;;0.93;0.85;;;17.00;61.80;;;;;;5053906;28;20164;-64
2022/10/01 01:14:29;;;;;;;1.20;1.10;;;17.00;61.80;;;;;;5052829;28;20732;-64
2022/10/01 01:17:00;;;;;;;1.00;1.00;;;17.00;61.80;;;;;;5053829;28;20178;-63
2022/10/01 01:19:53;;;;;;;1.27;1.17;;;17.00;61.80;;;;;;5054086;28;20167;-64
2022/10/01 01:22:20;;;;;;;1.00;1.00;;;16.90;61.80;;;;;;5053932;28;20175;-64
2022/10/01 01:25:10;;;;;;;0.73;0.73;;;17.00;61.80;;;;;;5037149;28;20279;-64
2022/10/01 01:27:39;;;;;;;0.80;0.80;;;17.00;61.90;;;;;;5045734;28;20194;-64
2022/10/01 01:30:13;;;;;;;1.25;0.95;;;16.90;61.80;;;;;;5037036;28;20186;-63
2022/10/01 01:33:01;;;;;;;1.15;1.05;;;16.90;61.90;;;;;;5053283;28;20224;-63
2022/10/01 01:35:36;;;;;;;1.23;1.10;;;16.90;61.80;;;;;;5052842;28;20209;-63
2022/10/01 01:38:05;;;;;;;1.58;0.77;;;16.90;61.80;;;;;;5053167;28;20182;-63
2022/10/01 01:40:31;;;;;;;1.83;0.93;;;16.90;61.90;;;;;;5053211;28;20647;-64
2022/10/01 01:42:56;;;;;;;1.33;1.23;;;16.90;61.90;;;;;;5035722;28;20211;-63
2022/10/01 01:45:24;;;;;;;1.35;1.23;;;16.90;61.80;;;;;;5036597;28;20198;-64
2022/10/01 01:47:50;;;;;;;0.80;0.80;;;16.90;61.80;;;;;;5066330;28;20175;-64
2022/10/01 01:50:15;;;;;;;1.63;1.05;;;16.90;61.90;;;;;;5073107;28;20554;-64
2022/10/01 01:52:41;;;;;;;1.00;1.00;;;16.90;61.90;;;;;;5073144;28;20187;-65
2022/10/01 01:55:07;;;;;;;1.20;1.10;;;16.90;61.90;;;;;;5058339;28;20163;-63
2022/10/01 01:57:36;;;;;;;1.00;0.90;;;16.90;62.00;;;;;;5035538;28;20514;-64
2022/10/01 02:00:02;;;;;;;2.08;1.20;;;16.90;61.90;;;;;;5053685;28;20186;-64
2022/10/01 02:02:31;;;;;;;1.08;1.08;;;16.90;62.00;;;;;;5053530;28;20189;-64
2022/10/01 02:04:59;;;;;;;1.48;1.20;;;16.90;61.90;;;;;;5053800;28;20179;-63
2022/10/01 02:07:54;;;;;;;1.90;1.20;;;16.90;62.00;;;;;;5036180;28;20542;-63
2022/10/01 02:10:28;;;;;;;0.98;0.93;;;16.90;62.00;;;;;;5051771;28;20200;-63
2022/10/01 02:13:02;;;;;;;0.90;0.90;;;16.90;62.00;;;;;;5053644;28;20309;-64
2022/10/01 02:16:03;;;;;;;1.08;1.08;;;16.90;62.00;;;;;;5053938;28;20270;-64
2022/10/01 02:18:33;;;;;;;1.63;1.33;;;16.90;62.00;;;;;;5051719;28;20581;-64
2022/10/01 02:21:06;;;;;;;1.45;1.00;;;16.90;62.00;;;;;;5051958;28;20179;-64
2022/10/01 02:23:39;;;;;;;1.17;1.17;;;16.90;62.00;;;;;;5035645;28;20238;-64
2022/10/01 02:26:09;;;;;;;1.23;1.13;;;16.90;62.00;;;;;;5036138;28;20250;-64
2022/10/01 02:28:37;;;;;;;1.00;1.00;;;16.90;62.00;;;;;;5053514;28;20614;-64
2022/10/01 02:31:02;;;;;;;2.35;1.05;;;16.90;62.00;;;;;;5035050;28;20254;-63
2022/10/01 02:33:32;;;;;;;0.98;0.98;;;16.90;62.10;;;;;;5053532;28;20210;-63
2022/10/01 02:35:58;;;;;;;1.65;1.33;;;16.90;62.10;;;;;;5035653;28;20266;-63
2022/10/01 02:38:24;;;;;;;1.40;1.10;;;16.90;62.10;;;;;;5052829;28;20254;-63
2022/10/01 02:40:50;;;;;;;1.48;1.02;;;16.90;62.10;;;;;;5035653;28;20218;-63
2022/10/01 02:43:21;;;;;;;1.00;1.00;;;16.80;62.10;;;;;;5051969;28;20219;-64
2022/10/01 02:45:50;;;;;;;1.02;1.02;;;16.90;62.10;;;;;;5035343;28;20626;-64
2022/10/01 02:48:16;;;;;;;1.67;1.10;;;16.90;62.10;;;;;;5067798;28;20191;-65
2022/10/01 02:50:49;;;;;;;1.30;0.95;;;16.80;62.10;;;;;;5073369;28;20174;-64
2022/10/01 02:53:45;;;;;;;0.90;0.90;;;16.90;62.10;;;;;;5071755;28;20626;-64
2022/10/01 02:56:10;;;;;;;1.63;1.00;;;16.90;62.10;;;;;;5043643;28;20191;-64
2022/10/01 02:58:36;;;;;;;1.42;0.80;;;16.80;62.10;;;;;;5034802;28;20164;-64
2022/10/01 03:01:02;;;;;;;1.10;1.00;;;16.80;62.30;;;;;;5052914;28;20178;-64
2022/10/01 03:03:29;;;;;;;1.20;1.20;;;16.80;62.10;;;;;;5052990;28;20237;-64
2022/10/01 03:05:55;;;;;;;1.15;1.05;;;16.90;62.20;;;;;;5052294;28;20669;-64
2022/10/01 03:08:20;;;;;;;1.05;1.00;;;16.90;62.20;;;;;;5052105;28;20190;-64
2022/10/01 03:10:46;;;;;;;0.90;0.90;;;16.80;62.30;;;;;;5052789;28;20178;-64
2022/10/01 03:13:12;;;;;;;1.23;1.10;;;16.80;62.20;;;;;;5051703;28;20222;-64
2022/10/01 03:15:37;;;;;;;1.42;1.10;;;16.80;62.20;;;;;;5053126;28;20175;-64
2022/10/01 03:18:03;;;;;;;0.90;0.90;;;16.80;62.30;;;;;;5052885;28;20301;-64
2022/10/01 03:20:28;;;;;;;1.17;1.08;;;16.80;62.30;;;;;;5052157;28;20167;-64
2022/10/01 03:22:54;;;;;;;1.00;1.00;;;16.80;62.30;;;;;;5052946;28;20207;-64
2022/10/01 03:25:19;;;;;;;2.25;1.13;;;16.80;62.30;;;;;;5052349;28;20179;-65
2022/10/01 03:27:45;;;;;;;1.20;1.10;;;16.80;62.30;;;;;;5051996;28;20633;-64
2022/10/01 03:30:10;;;;;;;1.50;1.33;;;16.80;62.30;;;;;;5052507;28;20182;-64
2022/10/01 03:32:36;;;;;;;1.38;1.15;;;16.80;62.30;;;;;;5052897;28;20225;-63
2022/10/01 03:35:02;;;;;;;1.17;1.08;;;16.80;62.30;;;;;;5051510;28;20701;-63
2022/10/01 03:37:27;;;;;;;1.63;1.02;;;16.80;62.30;;;;;;5052613;28;20210;-64
2022/10/01 03:39:53;;;;;;;1.08;0.98;;;16.80;62.40;;;;;;5052441;28;20179;-63
2022/10/01 03:42:18;;;;;;;1.13;1.00;;;16.80;62.40;;;;;;5051407;28;20633;-64
2022/10/01 03:44:44;;;;;;;1.30;1.20;;;16.80;62.40;;;;;;5052723;28;20214;-65
2022/10/01 03:47:09;;;;;;;1.30;1.20;;;16.80;62.50;;;;;;5052311;28;20225;-64
2022/10/01 03:49:35;;;;;;;1.02;1.02;;;16.80;62.40;;;;;;5052323;28;20179;-64
2022/10/01 03:52:02;;;;;;;1.02;1.00;;;16.80;62.40;;;;;;5052192;28;20237;-65
2022/10/01 03:54:30;;;;;;;0.98;0.88;;;16.80;62.50;;;;;;5052205;28;20215;-64
2022/10/01 03:56:55;;;;;;;1.20;1.10;;;16.80;63.30;;;;;;5051939;28;20163;-64
2022/10/01 03:59:21;;;;;;;1.23;0.90;;;16.80;62.50;;;;;;5052291;28;20175;-64
2022/10/01 04:01:46;;;;;;;1.80;1.20;;;16.80;62.60;;;;;;5052655;28;20214;-64
2022/10/01 04:04:12;;;;;;;0.90;0.90;;;16.80;62.50;;;;;;5051306;28;20253;-64
2022/10/01 04:06:37;;;;;;;0.90;0.90;;;16.80;62.60;;;;;;5052231;28;20175;-63
2022/10/01 04:09:03;;;;;;;0.90;0.90;;;16.80;62.60;;;;;;5051299;28;20172;-64
2022/10/01 04:11:29;;;;;;;1.90;1.13;;;16.80;62.50;;;;;;5052349;28;20183;-64
2022/10/01 04:13:56;;;;;;;1.20;1.10;;;16.80;62.60;;;;;;5052191;28;20549;-64
2022/10/01 04:16:23;;;;;;;0.80;0.80;;;16.80;62.60;;;;;;5051477;28;20574;-64
2022/10/01 04:18:49;;;;;;;0.95;0.95;;;16.80;62.60;;;;;;5052233;28;20179;-64
2022/10/01 04:21:14;;;;;;;1.05;0.98;;;16.80;62.60;;;;;;5054300;28;20179;-64
2022/10/01 04:23:40;;;;;;;0.70;0.70;;;16.80;62.60;;;;;;5055029;28;20235;-64
2022/10/01 04:26:06;;;;;;;0.85;0.85;;;16.80;62.60;;;;;;5055750;28;20309;-63
2022/10/01 04:28:31;;;;;;;1.85;0.90;;;16.80;62.70;;;;;;5056022;28;20197;-63
2022/10/01 04:33:41;;;;;;;1.17;1.08;;;16.80;62.70;;;;;;5055800;28;20190;-62
2022/10/01 04:36:06;;;;;;;0.90;0.80;;;16.80;62.70;;;;;;5055188;28;20629;-62
2022/10/01 04:38:32;;;;;;;2.03;1.08;;;16.80;62.70;;;;;;5055048;28;20179;-63
2022/10/01 04:40:58;;;;;;;1.25;1.00;;;16.70;62.60;;;;;;5055639;28;20176;-63
2022/10/01 04:43:23;;;;;;;0.70;0.70;;;16.80;62.70;;;;;;5055346;28;20316;-63
2022/10/01 04:45:49;;;;;;;1.10;0.90;;;16.80;62.70;;;;;;5054937;28;20183;-63
2022/10/01 04:48:14;;;;;;;1.23;0.75;;;16.70;62.60;;;;;;5071099;28;20184;-63
2022/10/01 04:50:40;;;;;;;0.70;0.70;;;16.70;62.70;;;;;;5075290;28;20170;-63
2022/10/01 04:53:05;;;;;;;0.98;0.80;;;16.80;62.70;;;;;;5074622;28;20174;-63
2022/10/01 04:55:31;;;;;;;0.93;0.80;;;16.70;62.70;;;;;;5056122;28;20193;-63
2022/10/01 04:57:56;;;;;;;0.90;0.90;;;16.70;62.70;;;;;;5055080;28;20656;-63
2022/10/01 05:00:25;;;;;;;0.80;0.80;;;16.80;62.80;;;;;;5054429;28;20183;-63
2022/10/01 05:02:51;;;;;;;0.80;0.80;;;16.80;62.80;;;;;;5055159;28;20249;-63
2022/10/01 05:05:17;;;;;;;0.85;0.63;;;16.70;62.80;;;;;;5053968;28;20183;-63
2022/10/01 05:07:43;;;;;;;0.68;0.68;;;16.70;62.80;;;;;;5055057;28;20233;-62
2022/10/01 05:10:13;;;;;;;1.00;0.70;;;16.70;62.80;;;;;;5054498;28;20187;-63
2022/10/01 05:12:40;;;;;;;0.77;0.77;;;16.70;62.80;;;;;;5052946;28;20634;-63
2022/10/01 05:15:09;;;;;;;0.80;0.80;;;16.80;62.90;;;;;;5054658;28;20179;-63
2022/10/01 05:17:34;;;;;;;1.10;1.00;;;16.70;62.90;;;;;;5054726;28;20220;-63
2022/10/01 05:20:00;;;;;;;0.77;0.77;;;16.80;62.90;;;;;;5053945;28;20265;-62
2022/10/01 05:22:26;;;;;;;1.67;1.10;;;16.70;63.00;;;;;;5055082;28;20221;-63
2022/10/01 05:24:51;;;;;;;1.25;1.15;;;16.70;62.90;;;;;;5054919;28;20203;-63
2022/10/01 05:27:17;;;;;;;1.33;0.60;;;16.70;62.90;;;;;;5053880;28;20536;-63
2022/10/01 05:29:43;;;;;;;0.82;0.80;;;16.70;62.90;;;;;;5054843;28;20706;-63
2022/10/01 05:32:09;;;;;;;0.90;0.90;;;16.70;62.80;;;;;;5053966;28;20179;-62
2022/10/01 05:34:34;;;;;;;1.20;0.73;;;16.70;62.90;;;;;;5054079;28;20270;-62
2022/10/01 05:37:01;;;;;;;1.38;0.70;;;16.70;63.00;;;;;;5054407;28;20177;-62
2022/10/01 05:39:27;;;;;;;1.08;1.00;;;16.70;63.10;;;;;;5054593;28;20190;-62
2022/10/01 05:41:54;;;;;;;1.13;1.02;;;16.70;63.10;;;;;;5053990;28;20175;-63
2022/10/01 05:44:22;;;;;;;1.38;1.10;;;16.70;63.00;;;;;;5054249;28;20286;-63
2022/10/01 05:46:49;;;;;;;1.73;0.52;;;16.70;63.10;;;;;;5058566;28;20177;-63
2022/10/01 05:49:15;;;;;;;0.63;0.63;;;16.70;63.00;;;;;;5073107;28;20186;-63
2022/10/01 05:51:40;;;;;;;1.75;0.73;;;16.70;63.00;;;;;;5074453;28;20178;-62
2022/10/01 05:54:06;;;;;;;0.70;0.70;;;16.70;63.00;;;;;;5066853;28;20263;-63
2022/10/01 05:56:31;;;;;;;0.77;0.75;;;16.70;63.00;;;;;;5053782;28;20220;-62
2022/10/01 05:58:58;;;;;;;0.68;0.68;;;16.70;63.10;;;;;;5054009;28;20251;-62
2022/10/01 06:01:23;;;;;;;0.70;0.70;;;16.70;63.10;;;;;;5054070;28;20228;-63
2022/10/01 06:03:52;;;;;;;0.80;0.70;;;16.70;63.10;;;;;;5053137;28;20294;-62
2022/10/01 06:06:22;;;;;;;0.70;0.70;;;16.70;63.10;;;;;;5053822;28;20178;-62
2022/10/01 06:08:47;;;;;;;0.50;0.50;;;16.70;63.20;;;;;;5053287;28;20179;-63
2022/10/01 06:11:13;;;;;;;1.08;0.90;;;16.80;63.20;;;;;;5053242;28;20545;-62
2022/10/01 06:13:43;;;;;;;0.60;0.60;;;16.80;63.30;;;;;;5053451;28;20730;-63
2022/10/01 06:16:12;;;;;;;0.98;0.93;;;16.80;63.30;;;;;;5052654;28;20265;-63
2022/10/01 06:18:38;;;;;;;0.70;0.70;;;16.80;63.20;;;;;;5060786;28;20264;-62
2022/10/01 06:21:04;;;;;;;0.88;0.70;;;16.80;63.30;;;;;;5055520;28;20190;-63
2022/10/01 06:23:29;;;;;;;0.80;0.80;;;16.80;63.20;;;;;;5072897;28;20206;-62
2022/10/01 06:25:55;;;;;;;1.77;0.98;;;16.70;63.10;;;;;;5067664;28;20159;-63
2022/10/01 06:28:20;;;;;;;0.70;0.70;;;16.80;63.30;;;;;;5053295;28;20253;-62
2022/10/01 06:30:46;;;;;;;1.50;0.80;;;16.80;63.30;;;;;;5052723;28;20175;-62
2022/10/01 06:33:15;;;;;;;3.75;1.00;;;16.80;63.30;;;;;;5050152;28;20719;-63
2022/10/01 06:35:42;;;;;;;2.25;1.00;;;16.80;63.30;;;;;;5065396;28;20170;-62
2022/10/01 06:38:08;;;;;;;0.93;0.82;;;16.80;63.50;;;;;;5072220;28;20277;-62
2022/10/01 06:40:34;;;;;;;1.10;0.63;;;16.80;63.50;;;;;;5063260;28;20673;-63
2022/10/01 06:42:59;;;;;;;1.08;1.00;;;16.90;63.60;;;;;;5052278;28;20665;-63
2022/10/01 06:45:28;;;;;;;0.60;0.60;;;17.00;63.80;;;;;;5052294;28;20167;-62
2022/10/01 06:47:54;;;;;;;1.60;0.93;;;17.10;63.70;;;;;;5066324;28;20174;-63
2022/10/01 06:50:20;;;;;;;2.78;0.90;;;17.20;63.60;;;;;;5072617;28;20555;-63
2022/10/01 06:52:48;;;;;;;1.55;0.85;;;17.30;63.40;;;;;;5056144;28;20223;-64
2022/10/01 06:55:18;;;;;;;2.03;0.95;;;17.50;63.30;;;;;;5052498;28;20641;-63
2022/10/01 06:57:43;;;;;;;6.15;0.95;;;17.50;63.20;;;;;;5052303;28;20206;-63
2022/10/01 07:00:10;;;;;;;1.42;0.90;;;17.60;63.10;;;;;;5052880;28;20191;-64
2022/10/01 07:02:35;;;;;;;1.92;0.80;;;17.70;62.90;;;;;;5052901;28;20201;-63
2022/10/01 07:05:01;;;;;;;2.92;0.95;;;17.80;62.80;;;;;;5052101;28;20179;-63
2022/10/01 07:07:30;;;;;;;1.58;1.00;;;17.80;62.60;;;;;;5053198;28;20545;-63
2022/10/01 07:09:56;;;;;;;1.25;0.80;;;17.80;62.40;;;;;;5052907;28;20261;-63
2022/10/01 07:12:22;;;;;;;1.55;0.77;;;17.80;62.50;;;;;;5051831;28;20681;-63
2022/10/01 07:14:48;;;;;;;0.75;0.75;;;17.80;62.60;;;;;;5052462;28;20178;-63
2022/10/01 07:17:13;;;;;;;1.23;0.85;;;17.80;62.60;;;;;;5052297;28;20660;-64
2022/10/01 07:19:39;;;;;;;1.90;0.70;;;17.90;62.60;;;;;;5052243;28;20183;-63
2022/10/01 07:22:04;;;;;;;1.05;0.82;;;17.90;62.50;;;;;;5052621;28;20182;-63
2022/10/01 07:24:30;;;;;;;1.90;1.20;;;17.90;62.50;;;;;;5052562;28;20577;-64
2022/10/01 07:26:55;;;;;;;1.05;0.95;;;17.90;62.40;;;;;;5068017;28;20520;-63
2022/10/01 07:29:22;;;;;;;1.80;0.80;;;17.90;62.40;;;;;;5072264;28;20186;-64
2022/10/01 07:31:49;;;;;;;2.97;0.90;;;17.90;62.40;;;;;;5072737;28;20174;-62
2022/10/01 07:34:14;;;;;;;3.28;1.20;;;17.90;62.50;;;;;;5071774;28;20190;-63
2022/10/01 07:36:41;;;;;;;3.10;1.02;;;17.90;62.60;;;;;;5072916;28;20174;-62
2022/10/01 07:39:07;;;;;;;0.90;0.75;;;17.80;62.60;;;;;;5072318;28;20229;-63
2022/10/01 07:41:32;;;;;;;3.65;1.13;;;17.80;62.70;;;;;;5072112;28;20567;-63
2022/10/01 07:43:58;;;;;;;2.40;1.08;;;17.80;62.80;;;;;;5072359;28;20225;-63
2022/10/01 07:46:23;;;;;;;2.28;1.00;;;17.70;62.80;;;;;;5071707;28;20182;-64
2022/10/01 07:48:49;;;;;;;3.60;0.88;;;17.70;62.90;;;;;;5051988;28;20171;-63
2022/10/01 07:51:14;;;;;;;2.40;1.00;;;17.70;62.90;;;;;;5052142;28;20175;-64
2022/10/01 07:53:40;;;;;;;2.05;1.00;;;17.70;62.90;;;;;;5052596;28;20195;-62
2022/10/01 07:56:05;;;;;;;1.27;1.00;;;17.60;63.20;;;;;;5054825;28;20258;-62
2022/10/01 07:58:31;;;;;;;4.50;0.85;;;17.70;63.40;;;;;;5056273;28;20637;-63
2022/10/01 08:00:58;;;;;;;3.05;1.40;;;17.60;63.40;;;;;;5056454;28;20212;-63
2022/10/01 08:03:24;;;;;;;2.25;0.85;;;17.60;63.50;;;;;;5055915;28;20214;-63
2022/10/01 08:05:51;;;;;;;4.60;1.10;;;17.70;63.30;;;;;;5056332;28;20191;-63
2022/10/01 08:08:17;;;;;;;1.23;1.05;;;17.60;63.30;;;;;;5055217;28;20187;-62
2022/10/01 08:10:42;;;;;;;2.85;1.27;;;17.60;63.50;;;;;;5056197;28;20171;-62
2022/10/01 08:13:13;;;;;;;1.95;0.90;;;17.60;63.60;;;;;;5055657;28;20643;-63
2022/10/01 08:15:40;;;;;;;1.77;0.85;;;17.60;63.80;;;;;;5054303;28;20213;-63
2022/10/01 08:18:05;;;;;;;2.28;0.95;;;17.60;64.00;;;;;;5055769;28;20198;-62
2022/10/01 08:20:31;;;;;;;2.60;0.90;;;17.50;64.00;;;;;;5056064;28;20642;-63
2022/10/01 08:23:03;;;;;;;1.98;0.95;;;17.60;64.00;;;;;;5054727;28;20168;-63
2022/10/01 08:25:29;;;;;;;2.80;1.13;;;17.60;64.00;;;;;;5060022;28;20186;-64
2022/10/01 08:27:54;;;;;;;1.27;1.00;;;17.50;64.00;;;;;;5075644;28;20197;-62
2022/10/01 08:30:20;;;;;;;4.35;0.90;;;17.50;64.10;;;;;;5074769;28;20547;-63
2022/10/01 08:32:45;;;;;;;3.42;1.52;;;17.50;64.20;;;;;;5075797;28;20178;-62
2022/10/01 08:35:11;;;;;;;2.25;1.15;;;17.50;64.10;;;;;;5075617;28;20174;-63
2022/10/01 08:37:36;;;;;;;2.35;0.80;;;17.60;64.20;;;;;;5074893;28;20177;-63
2022/10/01 08:40:02;;;;;;;2.08;1.00;;;17.60;64.10;;;;;;5075171;28;20184;-63
2022/10/01 08:42:51;;;;;;;2.15;0.90;;;17.70;64.00;;;;;;5075819;28;20166;-64
2022/10/01 08:45:44;;;;;;;2.25;1.20;;;17.80;63.90;;;;;;5073694;28;20205;-63
2022/10/01 08:48:34;;;;;;;1.95;0.90;;;17.70;63.90;;;;;;5059227;28;20262;-64
2022/10/01 08:51:04;;;;;;;1.52;0.90;;;17.70;64.00;;;;;;5054559;28;20175;-64
2022/10/01 08:53:36;;;;;;;1.60;0.98;;;17.60;64.00;;;;;;5054366;28;20529;-64
2022/10/01 08:56:02;;;;;;;4.13;1.08;;;17.60;64.10;;;;;;5037996;28;20183;-64
2022/10/01 08:58:34;;;;;;;1.80;0.90;;;17.60;64.10;;;;;;5036891;28;20248;-64
2022/10/01 09:00:59;;;;;;;1.20;0.80;;;17.60;64.20;;;;;;5037453;28;20187;-63
2022/10/01 09:03:25;;;;;;;0.88;0.85;;;17.60;64.10;;;;;;5055258;28;20226;-63
2022/10/01 09:06:16;;;;;;;1.48;1.35;;;17.60;63.90;;;;;;5053762;28;20171;-62
2022/10/01 09:08:57;;;;;;;1.48;1.00;;;17.60;64.10;;;;;;5054099;28;20298;-63
2022/10/01 09:11:29;;;;;;;1.67;1.00;;;17.60;64.20;;;;;;5037234;28;20536;-64
2022/10/01 09:14:13;;;;;;;1.80;0.85;;;17.50;64.40;;;;;;5053918;28;20216;-63
2022/10/01 09:17:05;;;;;;;0.85;0.75;;;17.50;64.40;;;;;;5054874;28;20171;-63
2022/10/01 09:19:53;;;;;;;1.10;1.00;;;17.40;64.50;;;;;;5052858;28;20179;-64
2022/10/01 09:22:34;;;;;;;0.80;0.80;;;17.40;64.50;;;;;;5054385;28;20164;-64
2022/10/01 09:25:09;;;;;;;0.75;0.75;;;17.40;64.60;;;;;;5054854;28;20222;-63
2022/10/01 09:27:35;;;;;;;1.85;1.25;;;17.40;64.60;;;;;;5072945;28;20217;-64
2022/10/01 09:30:03;;;;;;;2.72;1.20;;;17.40;64.50;;;;;;5073156;28;20206;-63
2022/10/01 09:32:40;;;;;;;1.58;0.80;;;17.40;64.50;;;;;;5074037;28;20171;-63
2022/10/01 09:35:43;;;;;;;1.38;1.08;;;17.40;64.50;;;;;;5073437;28;20212;-63
2022/10/01 09:38:14;;;;;;;0.80;0.80;;;17.40;64.50;;;;;;5071084;28;20264;-63
2022/10/01 09:40:47;;;;;;;1.50;0.90;;;17.40;64.50;;;;;;5072958;28;20183;-63
2022/10/01 09:43:13;;;;;;;1.02;0.85;;;17.40;64.60;;;;;;5073109;28;20202;-63
2022/10/01 09:45:38;;;;;;;2.08;1.08;;;17.40;64.60;;;;;;5073147;28;20717;-63
2022/10/01 09:48:14;;;;;;;1.80;1.05;;;17.40;64.70;;;;;;5058738;28;20182;-63
2022/10/01 09:50:42;;;;;;;1.35;0.90;;;17.40;64.70;;;;;;5036852;28;20175;-63
2022/10/01 09:53:14;;;;;;;1.05;0.80;;;17.40;64.70;;;;;;5053012;28;20175;-63
2022/10/01 09:55:41;;;;;;;1.20;1.00;;;17.30;64.60;;;;;;5016303;28;20188;-63
2022/10/01 09:58:17;;;;;;;1.50;1.15;;;17.40;64.80;;;;;;5016554;28;20172;-63
2022/10/01 10:00:43;;;;;;;1.45;0.93;;;17.30;64.70;;;;;;5032417;28;20176;-63
2022/10/01 10:03:08;;;;;;;0.93;0.93;;;17.40;64.80;;;;;;5033776;28;20211;-63
2022/10/01 10:05:45;;;;;;;1.75;0.90;;;17.30;64.60;;;;;;5034377;28;20187;-63
2022/10/01 10:08:29;;;;;;;1.67;0.90;;;17.40;64.70;;;;;;5033134;28;20176;-63
2022/10/01 10:10:59;;;;;;;1.25;0.93;;;17.40;64.60;;;;;;5033021;28;20175;-64
2022/10/01 10:13:34;;;;;;;1.33;1.13;;;17.50;64.40;;;;;;5016540;28;20255;-64
2022/10/01 10:16:06;;;;;;;1.08;1.02;;;17.60;64.20;;;;;;5032761;28;20185;-63
2022/10/01 10:18:37;;;;;;;1.45;0.90;;;17.70;63.90;;;;;;5033984;28;20164;-64
2022/10/01 10:21:06;;;;;;;1.17;0.80;;;17.80;63.70;;;;;;5032502;28;20176;-63
2022/10/01 10:23:33;;;;;;;1.08;0.93;;;17.80;63.50;;;;;;5015696;28;20296;-64
2022/10/01 10:26:00;;;;;;;1.42;0.98;;;17.80;63.60;;;;;;5050549;28;20171;-63
2022/10/01 10:28:26;;;;;;;0.77;0.77;;;17.90;63.60;;;;;;5073610;28;20177;-63
2022/10/01 10:30:55;;;;;;;0.90;0.90;;;17.90;63.50;;;;;;5073012;28;20171;-63
2022/10/01 10:33:21;;;;;;;1.02;0.88;;;18.00;63.60;;;;;;5072030;28;20174;-62
2022/10/01 10:36:01;;;;;;;0.80;0.80;;;18.00;63.50;;;;;;5071660;28;20537;-62
2022/10/01 10:38:32;;;;;;;0.75;0.73;;;18.10;63.40;;;;;;5072501;28;20603;-63
2022/10/01 10:40:57;;;;;;;0.63;0.63;;;18.10;63.30;;;;;;5073083;28;20181;-63
2022/10/01 10:43:26;;;;;;;0.80;0.80;;;18.10;63.30;;;;;;5072646;28;20218;-63
2022/10/01 10:45:55;;;;;;;1.75;0.77;;;18.10;63.30;;;;;;5073411;28;20170;-63
2022/10/01 10:48:21;;;;;;;1.70;0.90;;;18.00;63.40;;;;;;5056049;28;20185;-63
2022/10/01 10:50:46;;;;;;;1.63;0.90;;;18.00;63.60;;;;;;5051252;28;20232;-63
2022/10/01 10:53:26;;;;;;;1.05;0.95;;;18.00;63.80;;;;;;5052866;28;20171;-63
2022/10/01 10:55:59;;;;;;;1.15;0.82;;;18.00;64.00;;;;;;5033168;28;20271;-63
2022/10/01 10:58:26;;;;;;;1.05;0.68;;;18.00;63.90;;;;;;5032616;28;20176;-63
2022/10/01 11:00:52;;;;;;;3.30;1.52;;;18.00;64.00;;;;;;5033395;28;20183;-63
2022/10/01 11:03:20;;;;;;;1.35;1.25;;;17.90;64.00;;;;;;5032903;28;20561;-63
2022/10/01 11:05:50;;;;;;;1.63;0.80;;;17.80;64.10;;;;;;5031160;28;20257;-63
2022/10/01 11:08:22;;;;;;;1.10;0.80;;;17.80;64.30;;;;;;5032961;28;20179;-63
2022/10/01 11:11:13;;;;;;;1.15;0.80;;;17.70;64.50;;;;;;5032045;28;20278;-63
2022/10/01 11:13:58;;;;;;;1.15;0.82;;;17.70;64.50;;;;;;5032837;28;20238;-63
2022/10/01 11:16:34;;;;;;;1.33;1.23;;;17.90;64.40;;;;;;5031987;28;20237;-63
2022/10/01 11:19:21;;;;;;;1.27;1.00;;;18.00;64.00;;;;;;5030977;28;20203;-63
2022/10/01 11:21:47;;;;;;;0.80;0.80;;;18.10;63.90;;;;;;5031913;28;20199;-63
2022/10/01 11:24:31;;;;;;;0.85;0.70;;;18.10;63.70;;;;;;5032649;28;20210;-63
2022/10/01 11:27:04;;;;;;;1.50;0.88;;;18.20;63.60;;;;;;5065149;28;20209;-63
2022/10/01 11:29:45;;;;;;;1.10;0.80;;;18.10;63.60;;;;;;5074097;28;20190;-62
2022/10/01 11:32:20;;;;;;;1.40;0.90;;;18.10;63.70;;;;;;5077487;28;20170;-62
2022/10/01 11:34:55;;;;;;;0.70;0.70;;;18.20;63.60;;;;;;5062333;28;20170;-62
2022/10/01 11:37:33;;;;;;;1.00;0.90;;;18.20;63.60;;;;;;5079299;28;20272;-62
2022/10/01 11:40:02;;;;;;;1.85;0.90;;;18.20;63.40;;;;;;5078455;28;20269;-62
2022/10/01 11:42:34;;;;;;;1.30;0.95;;;18.30;63.40;;;;;;5061722;28;20180;-63
2022/10/01 11:45:21;;;;;;;0.80;0.80;;;18.40;63.40;;;;;;5061528;28;20214;-63
2022/10/01 11:47:52;;;;;;;1.40;1.10;;;18.40;64.10;;;;;;5066496;28;20228;-63
2022/10/01 11:50:24;;;;;;;0.60;0.60;;;18.40;63.20;;;;;;5057654;28;20657;-63
2022/10/01 11:53:10;;;;;;;1.10;0.80;;;18.50;63.20;;;;;;5058162;28;20261;-63
2022/10/01 11:58:53;;;;;;;2.33;0.70;;;18.50;63.20;;;;;;5059317;28;20526;-63
2022/10/01 12:01:32;;;;;;;1.05;0.77;;;18.40;64.10;;;;;;5057054;28;20618;-63
2022/10/01 12:04:05;;;;;;;0.90;0.70;;;18.40;63.50;;;;;;5042293;28;20677;-63
2022/10/01 12:06:36;;;;;;;0.82;0.82;;;18.40;63.60;;;;;;5059296;28;20182;-62
2022/10/01 12:09:12;;;;;;;1.23;0.70;;;18.40;63.60;;;;;;5057076;28;20209;-63
2022/10/01 12:12:05;;;;;;;0.70;0.70;;;18.40;63.50;;;;;;5057841;28;20178;-62
2022/10/01 12:14:37;;;;;;;2.17;0.70;;;18.50;63.40;;;;;;5057581;28;20214;-62
2022/10/01 12:17:22;;;;;;;1.42;0.70;;;18.50;63.20;;;;;;5041462;28;20163;-62
2022/10/01 12:19:49;;;;;;;0.80;0.80;;;18.60;63.20;;;;;;5058384;28;20167;-62
2022/10/01 12:22:33;;;;;;;0.73;0.68;;;18.60;63.20;;;;;;5056845;28;20182;-62
2022/10/01 12:25:00;;;;;;;1.40;0.80;;;18.60;63.10;;;;;;5057896;28;20326;-62
2022/10/01 12:27:50;;;;;;;1.83;1.02;;;18.60;63.10;;;;;;5061356;28;20664;-62
2022/10/01 12:30:20;;;;;;;1.85;0.70;;;18.60;63.10;;;;;;5077775;28;20174;-62
2022/10/01 12:33:14;;;;;;;2.45;1.00;;;18.50;63.20;;;;;;5061010;28;20625;-61
2022/10/01 12:36:24;;;;;;;1.05;0.90;;;18.40;63.60;;;;;;5077380;28;20293;-61
2022/10/01 12:39:01;;;;;;;0.82;0.70;;;18.30;64.00;;;;;;5056559;28;20191;-62
2022/10/01 12:41:49;;;;;;;1.80;0.70;;;18.20;64.10;;;;;;5055650;28;20206;-62
2022/10/01 12:44:31;;;;;;;1.35;0.80;;;18.10;64.10;;;;;;5074588;28;20236;-62
2022/10/01 12:47:19;;;;;;;0.90;0.75;;;18.10;64.30;;;;;;5069828;28;20572;-63
2022/10/01 12:49:55;;;;;;;2.25;1.17;;;18.10;64.30;;;;;;5054827;28;20260;-63
2022/10/01 12:52:32;;;;;;;1.27;0.82;;;18.10;64.40;;;;;;5055585;28;20186;-62
2022/10/01 12:55:19;;;;;;;1.25;0.80;;;18.10;64.40;;;;;;5053850;28;20653;-62
2022/10/01 12:57:54;;;;;;;1.55;0.82;;;18.30;63.90;;;;;;5054698;28;20194;-62
2022/10/01 13:00:25;;;;;;;0.98;0.80;;;18.40;64.00;;;;;;5055228;28;20185;-63
2022/10/01 13:02:56;;;;;;;1.58;1.00;;;18.50;63.80;;;;;;5055402;28;20242;-63
2022/10/01 13:05:32;;;;;;;1.45;1.00;;;18.60;63.60;;;;;;5054671;28;20171;-62
2022/10/01 13:08:03;;;;;;;1.90;1.00;;;18.60;63.40;;;;;;5053908;28;20190;-62